sensor_id;sensor_type;location;lat;lon;timestamp;P1;durP1;ratioP1;P2;durP2;ratioP2
83054;SDS011;72877;52.130;5.582;2024-03-22T00:00:29;59.80;;;33.92;;
83054;SDS011;72877;52.130;5.582;2024-03-22T00:02:55;61.30;;;34.05;;
83054;SDS011;72877;52.130;5.582;2024-03-22T00:05:20;58.67;;;32.42;;
83054;SDS011;72877;52.130;5.582;2024-03-22T00:07:47;56.42;;;32.53;;
83054;SDS011;72877;52.130;5.582;2024-03-22T00:10:12;60.85;;;31.92;;
83054;SDS011;72877;52.130;5.582;2024-03-22T00:12:38;60.97;;;32.97;;
83054;SDS011;72877;52.130;5.582;2024-03-22T00:15:03;58.78;;;32.65;;
83054;SDS011;72877;52.130;5.582;2024-03-22T00:17:29;59.67;;;33.03;;
83054;SDS011;72877;52.130;5.582;2024-03-22T00:19:55;60.55;;;32.35;;
83054;SDS011;72877;52.130;5.582;2024-03-22T00:22:20;54.83;;;31.27;;
83054;SDS011;72877;52.130;5.582;2024-03-22T00:24:46;59.65;;;32.72;;
83054;SDS011;72877;52.130;5.582;2024-03-22T00:27:11;53.65;;;30.70;;
83054;SDS011;72877;52.130;5.582;2024-03-22T00:29:37;58.55;;;31.75;;
83054;SDS011;72877;52.130;5.582;2024-03-22T00:32:02;58.15;;;32.00;;
83054;SDS011;72877;52.130;5.582;2024-03-22T00:34:28;58.45;;;32.55;;
83054;SDS011;72877;52.130;5.582;2024-03-22T00:36:53;60.72;;;33.20;;
83054;SDS011;72877;52.130;5.582;2024-03-22T00:39:18;55.50;;;32.53;;
83054;SDS011;72877;52.130;5.582;2024-03-22T00:41:43;62.58;;;32.42;;
83054;SDS011;72877;52.130;5.582;2024-03-22T00:44:08;60.90;;;33.75;;
83054;SDS011;72877;52.130;5.582;2024-03-22T00:46:34;56.05;;;32.33;;
83054;SDS011;72877;52.130;5.582;2024-03-22T00:49:00;58.00;;;33.20;;
83054;SDS011;72877;52.130;5.582;2024-03-22T00:51:25;60.90;;;33.42;;
83054;SDS011;72877;52.130;5.582;2024-03-22T00:53:51;55.35;;;32.60;;
83054;SDS011;72877;52.130;5.582;2024-03-22T00:56:16;60.15;;;34.53;;
83054;SDS011;72877;52.130;5.582;2024-03-22T00:58:41;63.50;;;34.03;;
83054;SDS011;72877;52.130;5.582;2024-03-22T01:01:07;59.03;;;34.00;;
83054;SDS011;72877;52.130;5.582;2024-03-22T01:03:32;59.55;;;33.53;;
83054;SDS011;72877;52.130;5.582;2024-03-22T01:05:57;65.68;;;34.92;;
83054;SDS011;72877;52.130;5.582;2024-03-22T01:08:22;59.97;;;33.83;;
83054;SDS011;72877;52.130;5.582;2024-03-22T01:10:48;58.00;;;33.20;;
83054;SDS011;72877;52.130;5.582;2024-03-22T01:13:13;59.50;;;32.97;;
83054;SDS011;72877;52.130;5.582;2024-03-22T01:15:38;59.35;;;33.08;;
83054;SDS011;72877;52.130;5.582;2024-03-22T01:18:03;65.18;;;34.83;;
83054;SDS011;72877;52.130;5.582;2024-03-22T01:20:29;64.05;;;34.80;;
83054;SDS011;72877;52.130;5.582;2024-03-22T01:22:54;59.50;;;35.00;;
83054;SDS011;72877;52.130;5.582;2024-03-22T01:25:20;58.65;;;32.63;;
83054;SDS011;72877;52.130;5.582;2024-03-22T01:27:45;66.53;;;34.78;;
83054;SDS011;72877;52.130;5.582;2024-03-22T01:30:10;65.78;;;34.60;;
83054;SDS011;72877;52.130;5.582;2024-03-22T01:32:36;62.83;;;35.35;;
83054;SDS011;72877;52.130;5.582;2024-03-22T01:35:01;65.43;;;35.38;;
83054;SDS011;72877;52.130;5.582;2024-03-22T01:37:26;66.05;;;36.13;;
83054;SDS011;72877;52.130;5.582;2024-03-22T01:39:52;66.88;;;35.95;;
83054;SDS011;72877;52.130;5.582;2024-03-22T01:42:17;66.78;;;37.30;;
83054;SDS011;72877;52.130;5.582;2024-03-22T01:44:42;67.13;;;36.45;;
83054;SDS011;72877;52.130;5.582;2024-03-22T01:47:07;68.45;;;37.08;;
83054;SDS011;72877;52.130;5.582;2024-03-22T01:49:33;70.78;;;38.00;;
83054;SDS011;72877;52.130;5.582;2024-03-22T01:51:58;67.10;;;35.88;;
83054;SDS011;72877;52.130;5.582;2024-03-22T01:54:23;61.15;;;35.17;;
83054;SDS011;72877;52.130;5.582;2024-03-22T01:56:48;64.20;;;35.33;;
83054;SDS011;72877;52.130;5.582;2024-03-22T01:59:14;66.18;;;36.38;;
83054;SDS011;72877;52.130;5.582;2024-03-22T02:01:39;64.75;;;36.03;;
83054;SDS011;72877;52.130;5.582;2024-03-22T02:04:04;69.57;;;36.70;;
83054;SDS011;72877;52.130;5.582;2024-03-22T02:06:30;64.53;;;36.03;;
83054;SDS011;72877;52.130;5.582;2024-03-22T02:08:56;64.53;;;35.42;;
83054;SDS011;72877;52.130;5.582;2024-03-22T02:11:21;69.72;;;36.45;;
83054;SDS011;72877;52.130;5.582;2024-03-22T02:13:46;70.53;;;36.85;;
83054;SDS011;72877;52.130;5.582;2024-03-22T02:16:11;75.32;;;38.38;;
83054;SDS011;72877;52.130;5.582;2024-03-22T02:18:37;68.28;;;37.75;;
83054;SDS011;72877;52.130;5.582;2024-03-22T02:21:02;69.00;;;36.33;;
83054;SDS011;72877;52.130;5.582;2024-03-22T02:23:32;69.93;;;36.45;;
83054;SDS011;72877;52.130;5.582;2024-03-22T02:25:57;63.00;;;34.88;;
83054;SDS011;72877;52.130;5.582;2024-03-22T02:28:22;66.32;;;36.25;;
83054;SDS011;72877;52.130;5.582;2024-03-22T02:30:47;68.28;;;35.53;;
83054;SDS011;72877;52.130;5.582;2024-03-22T02:33:13;65.18;;;35.08;;
83054;SDS011;72877;52.130;5.582;2024-03-22T02:35:38;68.23;;;35.77;;
83054;SDS011;72877;52.130;5.582;2024-03-22T02:38:03;64.43;;;36.27;;
83054;SDS011;72877;52.130;5.582;2024-03-22T02:40:28;66.60;;;38.97;;
83054;SDS011;72877;52.130;5.582;2024-03-22T02:42:53;61.63;;;36.13;;
83054;SDS011;72877;52.130;5.582;2024-03-22T02:45:19;69.47;;;36.75;;
83054;SDS011;72877;52.130;5.582;2024-03-22T02:47:44;60.00;;;34.60;;
83054;SDS011;72877;52.130;5.582;2024-03-22T02:50:09;65.60;;;34.65;;
83054;SDS011;72877;52.130;5.582;2024-03-22T02:52:34;67.93;;;36.55;;
83054;SDS011;72877;52.130;5.582;2024-03-22T02:54:59;71.55;;;38.95;;
83054;SDS011;72877;52.130;5.582;2024-03-22T02:57:25;70.07;;;39.23;;
83054;SDS011;72877;52.130;5.582;2024-03-22T02:59:50;61.70;;;36.22;;
83054;SDS011;72877;52.130;5.582;2024-03-22T03:02:15;71.65;;;37.45;;
83054;SDS011;72877;52.130;5.582;2024-03-22T03:04:40;66.28;;;36.28;;
83054;SDS011;72877;52.130;5.582;2024-03-22T03:07:05;62.95;;;37.08;;
83054;SDS011;72877;52.130;5.582;2024-03-22T03:09:31;69.17;;;36.50;;
83054;SDS011;72877;52.130;5.582;2024-03-22T03:11:56;61.75;;;34.38;;
83054;SDS011;72877;52.130;5.582;2024-03-22T03:14:21;61.00;;;33.10;;
83054;SDS011;72877;52.130;5.582;2024-03-22T03:16:46;60.70;;;33.58;;
83054;SDS011;72877;52.130;5.582;2024-03-22T03:19:11;57.10;;;32.72;;
83054;SDS011;72877;52.130;5.582;2024-03-22T03:21:37;66.00;;;34.50;;
83054;SDS011;72877;52.130;5.582;2024-03-22T03:24:02;59.47;;;31.85;;
83054;SDS011;72877;52.130;5.582;2024-03-22T03:26:27;62.50;;;32.58;;
83054;SDS011;72877;52.130;5.582;2024-03-22T03:28:52;57.45;;;32.75;;
83054;SDS011;72877;52.130;5.582;2024-03-22T03:31:19;59.85;;;33.30;;
83054;SDS011;72877;52.130;5.582;2024-03-22T03:33:44;58.72;;;32.65;;
83054;SDS011;72877;52.130;5.582;2024-03-22T03:36:10;62.35;;;33.20;;
83054;SDS011;72877;52.130;5.582;2024-03-22T03:38:35;59.03;;;32.77;;
83054;SDS011;72877;52.130;5.582;2024-03-22T03:41:02;55.97;;;32.15;;
83054;SDS011;72877;52.130;5.582;2024-03-22T03:43:27;63.90;;;33.83;;
83054;SDS011;72877;52.130;5.582;2024-03-22T03:45:53;64.15;;;35.78;;
83054;SDS011;72877;52.130;5.582;2024-03-22T03:48:19;67.88;;;36.83;;
83054;SDS011;72877;52.130;5.582;2024-03-22T03:50:50;68.00;;;36.13;;
83054;SDS011;72877;52.130;5.582;2024-03-22T03:53:15;63.70;;;33.00;;
83054;SDS011;72877;52.130;5.582;2024-03-22T03:55:41;70.18;;;35.28;;
83054;SDS011;72877;52.130;5.582;2024-03-22T03:58:06;66.03;;;34.05;;
83054;SDS011;72877;52.130;5.582;2024-03-22T04:00:32;68.65;;;35.60;;
83054;SDS011;72877;52.130;5.582;2024-03-22T04:02:57;66.63;;;36.95;;
83054;SDS011;72877;52.130;5.582;2024-03-22T04:05:22;65.55;;;35.25;;
83054;SDS011;72877;52.130;5.582;2024-03-22T04:07:48;66.18;;;34.33;;
83054;SDS011;72877;52.130;5.582;2024-03-22T04:10:13;74.60;;;37.03;;
83054;SDS011;72877;52.130;5.582;2024-03-22T04:12:38;68.63;;;35.40;;
83054;SDS011;72877;52.130;5.582;2024-03-22T04:15:03;70.22;;;36.05;;
83054;SDS011;72877;52.130;5.582;2024-03-22T04:17:29;69.55;;;36.97;;
83054;SDS011;72877;52.130;5.582;2024-03-22T04:19:54;70.95;;;36.35;;
83054;SDS011;72877;52.130;5.582;2024-03-22T04:22:19;72.40;;;34.78;;
83054;SDS011;72877;52.130;5.582;2024-03-22T04:24:44;73.68;;;36.38;;
83054;SDS011;72877;52.130;5.582;2024-03-22T04:27:10;67.70;;;37.23;;
83054;SDS011;72877;52.130;5.582;2024-03-22T04:29:35;71.07;;;37.67;;
83054;SDS011;72877;52.130;5.582;2024-03-22T04:32:00;75.60;;;39.72;;
83054;SDS011;72877;52.130;5.582;2024-03-22T04:34:25;75.65;;;38.97;;
83054;SDS011;72877;52.130;5.582;2024-03-22T04:36:51;73.28;;;37.20;;
83054;SDS011;72877;52.130;5.582;2024-03-22T04:39:19;76.57;;;39.40;;
83054;SDS011;72877;52.130;5.582;2024-03-22T04:41:45;75.30;;;39.78;;
83054;SDS011;72877;52.130;5.582;2024-03-22T04:44:10;75.95;;;39.00;;
83054;SDS011;72877;52.130;5.582;2024-03-22T04:46:35;77.63;;;41.67;;
83054;SDS011;72877;52.130;5.582;2024-03-22T04:49:00;78.38;;;40.15;;
83054;SDS011;72877;52.130;5.582;2024-03-22T04:51:25;74.90;;;39.53;;
83054;SDS011;72877;52.130;5.582;2024-03-22T04:53:51;78.80;;;40.38;;
83054;SDS011;72877;52.130;5.582;2024-03-22T04:56:16;83.70;;;42.47;;
83054;SDS011;72877;52.130;5.582;2024-03-22T04:58:41;78.88;;;39.47;;
83054;SDS011;72877;52.130;5.582;2024-03-22T05:01:06;66.97;;;37.60;;
83054;SDS011;72877;52.130;5.582;2024-03-22T05:03:31;74.80;;;38.35;;
83054;SDS011;72877;52.130;5.582;2024-03-22T05:05:57;72.00;;;39.42;;
83054;SDS011;72877;52.130;5.582;2024-03-22T05:08:23;75.55;;;39.55;;
83054;SDS011;72877;52.130;5.582;2024-03-22T05:10:48;73.10;;;39.53;;
83054;SDS011;72877;52.130;5.582;2024-03-22T05:13:13;79.38;;;41.05;;
83054;SDS011;72877;52.130;5.582;2024-03-22T05:15:39;73.75;;;39.92;;
83054;SDS011;72877;52.130;5.582;2024-03-22T05:18:04;71.88;;;37.88;;
83054;SDS011;72877;52.130;5.582;2024-03-22T05:20:29;75.32;;;39.28;;
83054;SDS011;72877;52.130;5.582;2024-03-22T05:22:55;75.32;;;39.92;;
83054;SDS011;72877;52.130;5.582;2024-03-22T05:25:20;75.13;;;39.93;;
83054;SDS011;72877;52.130;5.582;2024-03-22T05:27:45;72.85;;;40.17;;
83054;SDS011;72877;52.130;5.582;2024-03-22T05:30:11;75.57;;;37.25;;
83054;SDS011;72877;52.130;5.582;2024-03-22T05:32:37;68.00;;;37.42;;
83054;SDS011;72877;52.130;5.582;2024-03-22T05:35:04;68.05;;;36.55;;
83054;SDS011;72877;52.130;5.582;2024-03-22T05:37:29;75.57;;;39.58;;
83054;SDS011;72877;52.130;5.582;2024-03-22T05:39:54;67.47;;;36.60;;
83054;SDS011;72877;52.130;5.582;2024-03-22T05:42:20;66.05;;;37.72;;
83054;SDS011;72877;52.130;5.582;2024-03-22T05:44:45;72.55;;;38.38;;
83054;SDS011;72877;52.130;5.582;2024-03-22T05:47:10;72.60;;;37.72;;
83054;SDS011;72877;52.130;5.582;2024-03-22T05:49:35;68.47;;;38.17;;
83054;SDS011;72877;52.130;5.582;2024-03-22T05:52:01;74.40;;;37.65;;
83054;SDS011;72877;52.130;5.582;2024-03-22T05:54:26;68.18;;;37.83;;
83054;SDS011;72877;52.130;5.582;2024-03-22T05:56:51;67.60;;;38.13;;
83054;SDS011;72877;52.130;5.582;2024-03-22T05:59:16;64.40;;;35.10;;
83054;SDS011;72877;52.130;5.582;2024-03-22T06:01:42;63.30;;;34.37;;
83054;SDS011;72877;52.130;5.582;2024-03-22T06:04:07;69.03;;;36.88;;
83054;SDS011;72877;52.130;5.582;2024-03-22T06:06:33;65.97;;;35.28;;
83054;SDS011;72877;52.130;5.582;2024-03-22T06:08:59;68.07;;;36.28;;
83054;SDS011;72877;52.130;5.582;2024-03-22T06:11:25;63.15;;;34.97;;
83054;SDS011;72877;52.130;5.582;2024-03-22T06:13:50;71.90;;;36.20;;
83054;SDS011;72877;52.130;5.582;2024-03-22T06:16:16;62.92;;;34.38;;
83054;SDS011;72877;52.130;5.582;2024-03-22T06:18:41;67.50;;;36.47;;
83054;SDS011;72877;52.130;5.582;2024-03-22T06:21:06;64.60;;;34.33;;
83054;SDS011;72877;52.130;5.582;2024-03-22T06:23:32;63.28;;;33.60;;
83054;SDS011;72877;52.130;5.582;2024-03-22T06:25:57;61.38;;;34.88;;
83054;SDS011;72877;52.130;5.582;2024-03-22T06:28:22;59.63;;;35.45;;
83054;SDS011;72877;52.130;5.582;2024-03-22T06:30:48;72.50;;;36.60;;
83054;SDS011;72877;52.130;5.582;2024-03-22T06:33:13;66.63;;;35.28;;
83054;SDS011;72877;52.130;5.582;2024-03-22T06:35:39;58.22;;;34.40;;
83054;SDS011;72877;52.130;5.582;2024-03-22T06:38:04;61.65;;;34.33;;
83054;SDS011;72877;52.130;5.582;2024-03-22T06:40:29;61.55;;;33.22;;
83054;SDS011;72877;52.130;5.582;2024-03-22T06:42:55;62.58;;;33.20;;
83054;SDS011;72877;52.130;5.582;2024-03-22T06:45:20;58.67;;;32.78;;
83054;SDS011;72877;52.130;5.582;2024-03-22T06:47:45;61.23;;;32.47;;
83054;SDS011;72877;52.130;5.582;2024-03-22T06:50:11;59.63;;;31.42;;
83054;SDS011;72877;52.130;5.582;2024-03-22T06:52:36;53.22;;;30.75;;
83054;SDS011;72877;52.130;5.582;2024-03-22T06:55:01;61.47;;;29.85;;
83054;SDS011;72877;52.130;5.582;2024-03-22T06:57:26;57.63;;;30.80;;
83054;SDS011;72877;52.130;5.582;2024-03-22T06:59:52;48.50;;;29.77;;
83054;SDS011;72877;52.130;5.582;2024-03-22T07:02:17;52.10;;;28.57;;
83054;SDS011;72877;52.130;5.582;2024-03-22T07:04:43;53.08;;;27.88;;
83054;SDS011;72877;52.130;5.582;2024-03-22T07:07:08;52.45;;;28.13;;
83054;SDS011;72877;52.130;5.582;2024-03-22T07:09:33;51.05;;;28.02;;
83054;SDS011;72877;52.130;5.582;2024-03-22T07:11:59;45.42;;;26.20;;
83054;SDS011;72877;52.130;5.582;2024-03-22T07:14:24;43.97;;;24.47;;
83054;SDS011;72877;52.130;5.582;2024-03-22T07:16:50;55.45;;;27.30;;
83054;SDS011;72877;52.130;5.582;2024-03-22T07:19:15;45.67;;;26.33;;
83054;SDS011;72877;52.130;5.582;2024-03-22T07:21:41;50.73;;;26.33;;
83054;SDS011;72877;52.130;5.582;2024-03-22T07:24:06;49.05;;;25.85;;
83054;SDS011;72877;52.130;5.582;2024-03-22T07:26:31;49.00;;;26.37;;
83054;SDS011;72877;52.130;5.582;2024-03-22T07:28:56;52.67;;;26.73;;
83054;SDS011;72877;52.130;5.582;2024-03-22T07:31:21;46.03;;;25.00;;
83054;SDS011;72877;52.130;5.582;2024-03-22T07:33:47;51.05;;;25.55;;
83054;SDS011;72877;52.130;5.582;2024-03-22T07:36:12;52.88;;;27.35;;
83054;SDS011;72877;52.130;5.582;2024-03-22T07:38:37;53.43;;;27.53;;
83054;SDS011;72877;52.130;5.582;2024-03-22T07:41:03;47.40;;;25.33;;
83054;SDS011;72877;52.130;5.582;2024-03-22T07:43:29;53.00;;;26.48;;
83054;SDS011;72877;52.130;5.582;2024-03-22T07:45:54;48.78;;;26.00;;
83054;SDS011;72877;52.130;5.582;2024-03-22T07:48:20;50.28;;;25.20;;
83054;SDS011;72877;52.130;5.582;2024-03-22T07:50:45;55.33;;;26.38;;
83054;SDS011;72877;52.130;5.582;2024-03-22T07:53:10;45.92;;;24.17;;
83054;SDS011;72877;52.130;5.582;2024-03-22T07:55:38;50.10;;;25.48;;
83054;SDS011;72877;52.130;5.582;2024-03-22T07:58:03;47.75;;;25.38;;
83054;SDS011;72877;52.130;5.582;2024-03-22T08:00:29;41.70;;;25.23;;
83054;SDS011;72877;52.130;5.582;2024-03-22T08:02:54;44.47;;;25.83;;
83054;SDS011;72877;52.130;5.582;2024-03-22T08:05:19;51.42;;;26.40;;
83054;SDS011;72877;52.130;5.582;2024-03-22T08:07:45;55.38;;;26.00;;
83054;SDS011;72877;52.130;5.582;2024-03-22T08:10:10;53.50;;;27.38;;
83054;SDS011;72877;52.130;5.582;2024-03-22T08:12:35;46.08;;;25.48;;
83054;SDS011;72877;52.130;5.582;2024-03-22T08:15:01;49.80;;;25.67;;
83054;SDS011;72877;52.130;5.582;2024-03-22T08:17:26;56.00;;;27.27;;
83054;SDS011;72877;52.130;5.582;2024-03-22T08:19:51;55.83;;;26.80;;
83054;SDS011;72877;52.130;5.582;2024-03-22T08:22:16;52.20;;;27.67;;
83054;SDS011;72877;52.130;5.582;2024-03-22T08:24:41;51.72;;;27.35;;
83054;SDS011;72877;52.130;5.582;2024-03-22T08:27:07;53.38;;;28.02;;
83054;SDS011;72877;52.130;5.582;2024-03-22T08:29:32;55.03;;;28.77;;
83054;SDS011;72877;52.130;5.582;2024-03-22T08:31:57;55.67;;;27.80;;
83054;SDS011;72877;52.130;5.582;2024-03-22T08:34:23;48.88;;;27.80;;
83054;SDS011;72877;52.130;5.582;2024-03-22T08:36:48;46.65;;;28.10;;
83054;SDS011;72877;52.130;5.582;2024-03-22T08:39:13;48.50;;;26.52;;
83054;SDS011;72877;52.130;5.582;2024-03-22T08:41:40;46.67;;;28.10;;
83054;SDS011;72877;52.130;5.582;2024-03-22T08:44:05;55.60;;;27.95;;
83054;SDS011;72877;52.130;5.582;2024-03-22T08:46:30;53.78;;;27.85;;
83054;SDS011;72877;52.130;5.582;2024-03-22T08:48:57;49.33;;;27.55;;
83054;SDS011;72877;52.130;5.582;2024-03-22T08:51:22;45.75;;;25.58;;
83054;SDS011;72877;52.130;5.582;2024-03-22T08:53:47;48.10;;;27.17;;
83054;SDS011;72877;52.130;5.582;2024-03-22T08:56:12;50.45;;;27.05;;
83054;SDS011;72877;52.130;5.582;2024-03-22T08:58:38;46.33;;;26.10;;
83054;SDS011;72877;52.130;5.582;2024-03-22T09:01:03;48.72;;;26.48;;
83054;SDS011;72877;52.130;5.582;2024-03-22T09:03:28;47.65;;;24.92;;
83054;SDS011;72877;52.130;5.582;2024-03-22T09:05:55;50.72;;;26.00;;
83054;SDS011;72877;52.130;5.582;2024-03-22T09:08:20;45.42;;;22.75;;
83054;SDS011;72877;52.130;5.582;2024-03-22T09:10:46;40.83;;;21.92;;
83054;SDS011;72877;52.130;5.582;2024-03-22T09:13:12;42.00;;;21.30;;
83054;SDS011;72877;52.130;5.582;2024-03-22T09:15:37;37.80;;;20.98;;
83054;SDS011;72877;52.130;5.582;2024-03-22T09:18:03;36.60;;;20.08;;
83054;SDS011;72877;52.130;5.582;2024-03-22T09:20:31;37.92;;;19.60;;
83054;SDS011;72877;52.130;5.582;2024-03-22T09:22:57;35.58;;;20.02;;
83054;SDS011;72877;52.130;5.582;2024-03-22T09:25:23;34.25;;;19.17;;
83054;SDS011;72877;52.130;5.582;2024-03-22T09:27:48;35.78;;;19.60;;
83054;SDS011;72877;52.130;5.582;2024-03-22T09:30:13;32.10;;;18.80;;
83054;SDS011;72877;52.130;5.582;2024-03-22T09:32:38;31.75;;;18.85;;
83054;SDS011;72877;52.130;5.582;2024-03-22T09:35:05;31.00;;;17.88;;
83054;SDS011;72877;52.130;5.582;2024-03-22T09:37:30;34.08;;;18.02;;
83054;SDS011;72877;52.130;5.582;2024-03-22T09:39:55;40.40;;;19.42;;
83054;SDS011;72877;52.130;5.582;2024-03-22T09:42:21;42.40;;;20.20;;
83054;SDS011;72877;52.130;5.582;2024-03-22T09:44:47;35.20;;;20.35;;
83054;SDS011;72877;52.130;5.582;2024-03-22T09:47:14;29.02;;;19.38;;
83054;SDS011;72877;52.130;5.582;2024-03-22T09:49:40;33.03;;;19.13;;
83054;SDS011;72877;52.130;5.582;2024-03-22T09:52:05;37.00;;;19.83;;
83054;SDS011;72877;52.130;5.582;2024-03-22T09:54:31;30.52;;;19.02;;
83054;SDS011;72877;52.130;5.582;2024-03-22T09:56:56;35.92;;;17.70;;
83054;SDS011;72877;52.130;5.582;2024-03-22T09:59:22;34.50;;;18.00;;
83054;SDS011;72877;52.130;5.582;2024-03-22T10:01:48;34.72;;;18.50;;
83054;SDS011;72877;52.130;5.582;2024-03-22T10:04:14;27.67;;;17.50;;
83054;SDS011;72877;52.130;5.582;2024-03-22T10:06:39;29.15;;;16.58;;
83054;SDS011;72877;52.130;5.582;2024-03-22T10:09:05;26.70;;;16.27;;
83054;SDS011;72877;52.130;5.582;2024-03-22T10:11:30;29.58;;;15.90;;
83054;SDS011;72877;52.130;5.582;2024-03-22T10:13:55;24.85;;;14.32;;
83054;SDS011;72877;52.130;5.582;2024-03-22T10:16:21;27.95;;;15.05;;
83054;SDS011;72877;52.130;5.582;2024-03-22T10:18:46;25.08;;;14.50;;
83054;SDS011;72877;52.130;5.582;2024-03-22T10:21:16;22.08;;;13.57;;
83054;SDS011;72877;52.130;5.582;2024-03-22T10:23:42;24.08;;;13.52;;
83054;SDS011;72877;52.130;5.582;2024-03-22T10:26:09;23.17;;;12.95;;
83054;SDS011;72877;52.130;5.582;2024-03-22T10:28:35;18.65;;;12.88;;
83054;SDS011;72877;52.130;5.582;2024-03-22T10:31:00;25.75;;;13.27;;
83054;SDS011;72877;52.130;5.582;2024-03-22T10:33:26;23.45;;;13.43;;
83054;SDS011;72877;52.130;5.582;2024-03-22T10:35:52;22.70;;;12.63;;
83054;SDS011;72877;52.130;5.582;2024-03-22T10:38:18;20.13;;;12.15;;
83054;SDS011;72877;52.130;5.582;2024-03-22T10:40:44;17.48;;;10.43;;
83054;SDS011;72877;52.130;5.582;2024-03-22T10:43:10;18.17;;;10.52;;
83054;SDS011;72877;52.130;5.582;2024-03-22T10:45:35;18.55;;;10.35;;
83054;SDS011;72877;52.130;5.582;2024-03-22T10:48:01;16.42;;;10.43;;
83054;SDS011;72877;52.130;5.582;2024-03-22T10:50:30;14.43;;;9.82;;
83054;SDS011;72877;52.130;5.582;2024-03-22T10:53:02;12.13;;;9.32;;
83054;SDS011;72877;52.130;5.582;2024-03-22T10:55:30;18.23;;;10.55;;
83054;SDS011;72877;52.130;5.582;2024-03-22T10:57:57;16.17;;;10.57;;
83054;SDS011;72877;52.130;5.582;2024-03-22T11:02:54;14.82;;;10.95;;
83054;SDS011;72877;52.130;5.582;2024-03-22T11:05:20;17.67;;;11.55;;
83054;SDS011;72877;52.130;5.582;2024-03-22T11:07:45;15.13;;;11.05;;
83054;SDS011;72877;52.130;5.582;2024-03-22T11:10:11;15.18;;;10.93;;
83054;SDS011;72877;52.130;5.582;2024-03-22T11:12:37;16.60;;;10.98;;
83054;SDS011;72877;52.130;5.582;2024-03-22T11:15:02;14.82;;;10.50;;
83054;SDS011;72877;52.130;5.582;2024-03-22T11:17:28;15.00;;;10.20;;
83054;SDS011;72877;52.130;5.582;2024-03-22T11:19:53;15.90;;;10.33;;
83054;SDS011;72877;52.130;5.582;2024-03-22T11:22:18;19.17;;;10.03;;
83054;SDS011;72877;52.130;5.582;2024-03-22T11:24:43;13.73;;;9.80;;
83054;SDS011;72877;52.130;5.582;2024-03-22T11:27:09;16.92;;;10.30;;
83054;SDS011;72877;52.130;5.582;2024-03-22T11:29:35;13.55;;;10.27;;
83054;SDS011;72877;52.130;5.582;2024-03-22T11:32:01;12.65;;;10.27;;
83054;SDS011;72877;52.130;5.582;2024-03-22T11:34:26;16.40;;;10.65;;
83054;SDS011;72877;52.130;5.582;2024-03-22T11:36:53;11.52;;;9.15;;
83054;SDS011;72877;52.130;5.582;2024-03-22T11:39:19;10.20;;;8.13;;
83054;SDS011;72877;52.130;5.582;2024-03-22T11:41:44;13.70;;;9.00;;
83054;SDS011;72877;52.130;5.582;2024-03-22T11:44:09;15.13;;;9.25;;
83054;SDS011;72877;52.130;5.582;2024-03-22T11:46:35;13.70;;;9.98;;
83054;SDS011;72877;52.130;5.582;2024-03-22T11:49:01;14.63;;;9.13;;
83054;SDS011;72877;52.130;5.582;2024-03-22T11:51:26;12.63;;;7.83;;
83054;SDS011;72877;52.130;5.582;2024-03-22T11:53:52;10.85;;;8.40;;
83054;SDS011;72877;52.130;5.582;2024-03-22T11:56:19;12.32;;;8.35;;
83054;SDS011;72877;52.130;5.582;2024-03-22T11:58:45;11.43;;;8.23;;
83054;SDS011;72877;52.130;5.582;2024-03-22T12:01:10;16.02;;;8.15;;
83054;SDS011;72877;52.130;5.582;2024-03-22T12:03:35;11.68;;;8.80;;
83054;SDS011;72877;52.130;5.582;2024-03-22T12:06:01;10.48;;;7.40;;
83054;SDS011;72877;52.130;5.582;2024-03-22T12:08:26;12.07;;;6.53;;
83054;SDS011;72877;52.130;5.582;2024-03-22T12:10:51;9.20;;;6.77;;
83054;SDS011;72877;52.130;5.582;2024-03-22T12:13:16;9.13;;;6.30;;
83054;SDS011;72877;52.130;5.582;2024-03-22T12:15:41;8.93;;;6.45;;
83054;SDS011;72877;52.130;5.582;2024-03-22T12:18:06;9.00;;;6.33;;
83054;SDS011;72877;52.130;5.582;2024-03-22T12:20:32;5.73;;;5.00;;
83054;SDS011;72877;52.130;5.582;2024-03-22T12:22:57;7.75;;;5.85;;
83054;SDS011;72877;52.130;5.582;2024-03-22T12:25:22;6.97;;;5.00;;
83054;SDS011;72877;52.130;5.582;2024-03-22T12:27:47;6.60;;;4.70;;
83054;SDS011;72877;52.130;5.582;2024-03-22T12:30:13;5.47;;;4.28;;
83054;SDS011;72877;52.130;5.582;2024-03-22T12:32:38;6.05;;;4.88;;
83054;SDS011;72877;52.130;5.582;2024-03-22T12:35:03;4.88;;;4.20;;
83054;SDS011;72877;52.130;5.582;2024-03-22T12:37:29;5.97;;;4.68;;
83054;SDS011;72877;52.130;5.582;2024-03-22T12:39:54;9.37;;;5.70;;
83054;SDS011;72877;52.130;5.582;2024-03-22T12:42:20;6.15;;;4.63;;
83054;SDS011;72877;52.130;5.582;2024-03-22T12:44:45;9.52;;;5.10;;
83054;SDS011;72877;52.130;5.582;2024-03-22T12:47:10;6.38;;;5.13;;
83054;SDS011;72877;52.130;5.582;2024-03-22T12:49:35;7.93;;;5.43;;
83054;SDS011;72877;52.130;5.582;2024-03-22T12:52:01;5.43;;;4.38;;
83054;SDS011;72877;52.130;5.582;2024-03-22T12:54:26;6.75;;;4.88;;
83054;SDS011;72877;52.130;5.582;2024-03-22T12:56:51;5.75;;;5.15;;
83054;SDS011;72877;52.130;5.582;2024-03-22T12:59:16;6.20;;;4.73;;
83054;SDS011;72877;52.130;5.582;2024-03-22T13:01:41;6.82;;;5.40;;
83054;SDS011;72877;52.130;5.582;2024-03-22T13:04:07;9.23;;;6.15;;
83054;SDS011;72877;52.130;5.582;2024-03-22T13:06:33;7.97;;;6.47;;
83054;SDS011;72877;52.130;5.582;2024-03-22T13:08:59;10.02;;;6.80;;
83054;SDS011;72877;52.130;5.582;2024-03-22T13:11:24;11.98;;;7.38;;
83054;SDS011;72877;52.130;5.582;2024-03-22T13:13:50;13.80;;;8.38;;
83054;SDS011;72877;52.130;5.582;2024-03-22T13:16:15;14.32;;;9.32;;
83054;SDS011;72877;52.130;5.582;2024-03-22T13:18:41;15.15;;;8.52;;
83054;SDS011;72877;52.130;5.582;2024-03-22T13:21:06;13.18;;;8.20;;
83054;SDS011;72877;52.130;5.582;2024-03-22T13:23:31;14.37;;;8.63;;
83054;SDS011;72877;52.130;5.582;2024-03-22T13:26:01;14.75;;;9.10;;
83054;SDS011;72877;52.130;5.582;2024-03-22T13:28:27;12.77;;;7.68;;
83054;SDS011;72877;52.130;5.582;2024-03-22T13:31:02;14.98;;;9.00;;
83054;SDS011;72877;52.130;5.582;2024-03-22T13:33:28;14.05;;;8.82;;
83054;SDS011;72877;52.130;5.582;2024-03-22T13:35:53;15.60;;;8.60;;
83054;SDS011;72877;52.130;5.582;2024-03-22T13:38:18;12.25;;;6.75;;
83054;SDS011;72877;52.130;5.582;2024-03-22T13:40:43;16.90;;;10.40;;
83054;SDS011;72877;52.130;5.582;2024-03-22T13:43:09;19.17;;;11.02;;
83054;SDS011;72877;52.130;5.582;2024-03-22T13:45:41;12.83;;;8.67;;
83054;SDS011;72877;52.130;5.582;2024-03-22T13:48:10;15.43;;;9.00;;
83054;SDS011;72877;52.130;5.582;2024-03-22T13:50:40;12.63;;;8.55;;
83054;SDS011;72877;52.130;5.582;2024-03-22T13:56:09;14.45;;;7.82;;
83054;SDS011;72877;52.130;5.582;2024-03-22T13:58:34;12.68;;;8.27;;
83054;SDS011;72877;52.130;5.582;2024-03-22T14:00:59;11.20;;;7.90;;
83054;SDS011;72877;52.130;5.582;2024-03-22T14:03:25;16.33;;;8.82;;
83054;SDS011;72877;52.130;5.582;2024-03-22T14:05:50;17.27;;;9.27;;
83054;SDS011;72877;52.130;5.582;2024-03-22T14:08:16;15.17;;;9.10;;
83054;SDS011;72877;52.130;5.582;2024-03-22T14:10:41;15.52;;;8.02;;
83054;SDS011;72877;52.130;5.582;2024-03-22T14:13:06;13.17;;;7.80;;
83054;SDS011;72877;52.130;5.582;2024-03-22T14:15:33;13.60;;;8.75;;
83054;SDS011;72877;52.130;5.582;2024-03-22T14:18:00;13.60;;;7.63;;
83054;SDS011;72877;52.130;5.582;2024-03-22T14:20:25;20.10;;;9.73;;